createdAt,value
2018-10-16T00:01:19.329Z,10.57
2018-10-16T00:03:46.631Z,11.03
2018-10-16T00:06:13.882Z,14.30
2018-10-16T00:08:41.849Z,11.33
2018-10-16T00:11:09.121Z,10.47
2018-10-16T00:13:36.464Z,13.30
2018-10-16T00:16:03.701Z,13.83
2018-10-16T00:18:30.909Z,11.37
2018-10-16T00:20:58.153Z,11.27
2018-10-16T00:23:25.459Z,11.43
2018-10-16T00:25:52.726Z,12.43
2018-10-16T00:28:20.149Z,10.60
2018-10-16T00:30:47.424Z,11.17
2018-10-16T00:33:14.758Z,10.90
2018-10-16T00:35:42.019Z,11.00
2018-10-16T00:38:09.936Z,12.03
2018-10-16T00:40:37.436Z,11.23
2018-10-16T00:43:04.711Z,10.40
2018-10-16T00:45:32.016Z,10.90
2018-10-16T00:47:59.247Z,11.10
2018-10-16T00:50:27.343Z,11.07
2018-10-16T00:52:54.700Z,10.37
2018-10-16T00:55:22.266Z,10.60
2018-10-16T00:57:49.598Z,11.20
2018-10-16T01:00:17.040Z,10.90
2018-10-16T01:02:44.304Z,11.53
2018-10-16T01:05:12.517Z,11.37
2018-10-16T01:07:40.672Z,12.30
2018-10-16T01:10:08.973Z,11.50
2018-10-16T01:12:37.088Z,11.33
2018-10-16T01:15:04.699Z,11.67
2018-10-16T01:17:31.946Z,12.27
2018-10-16T01:19:59.216Z,11.20
2018-10-16T01:22:26.609Z,11.33
2018-10-16T01:24:53.866Z,11.93
2018-10-16T01:27:21.252Z,12.07
2018-10-16T01:29:48.516Z,12.77
2018-10-16T01:32:15.953Z,11.63
2018-10-16T01:34:43.326Z,11.53
2018-10-16T01:37:11.323Z,11.73
2018-10-16T01:39:38.637Z,11.70
2018-10-16T01:42:05.957Z,14.67
2018-10-16T01:44:33.183Z,11.53
2018-10-16T01:47:00.501Z,11.33
2018-10-16T01:49:27.758Z,12.50
2018-10-16T01:51:55.193Z,11.67
2018-10-16T01:54:22.471Z,12.63
2018-10-16T01:56:49.761Z,12.07
2018-10-16T01:59:17.028Z,11.43
2018-10-16T02:01:44.279Z,10.73
2018-10-16T02:04:15.135Z,12.00
2018-10-16T02:06:42.429Z,11.20
2018-10-16T02:09:11.017Z,11.60
2018-10-16T02:11:38.392Z,11.73
2018-10-16T02:14:05.933Z,13.27
2018-10-16T02:16:33.331Z,12.60
2018-10-16T02:19:00.608Z,12.07
2018-10-16T02:21:28.607Z,12.10
2018-10-16T02:23:56.622Z,11.57
2018-10-16T02:26:24.397Z,12.23
2018-10-16T02:28:51.650Z,11.87
2018-10-16T02:31:19.033Z,11.27
2018-10-16T02:33:46.336Z,12.30
2018-10-16T02:36:14.109Z,11.33
2018-10-16T02:38:41.414Z,11.60
2018-10-16T02:41:08.766Z,11.70
2018-10-16T02:43:36.102Z,11.60
2018-10-16T02:46:03.469Z,10.33
2018-10-16T02:48:30.690Z,10.63
2018-10-16T02:50:58.019Z,11.30
2018-10-16T02:53:25.332Z,10.30
2018-10-16T02:55:52.740Z,10.63
2018-10-16T02:58:20.081Z,12.97
2018-10-16T03:00:47.376Z,11.17
2018-10-16T03:03:14.680Z,11.23
2018-10-16T03:05:42.119Z,11.90
2018-10-16T03:08:09.404Z,10.53
2018-10-16T03:10:36.713Z,10.87
2018-10-16T03:13:04.023Z,11.37
2018-10-16T03:15:31.279Z,10.80
2018-10-16T03:17:58.766Z,10.63
2018-10-16T03:20:26.029Z,10.43
2018-10-16T03:22:53.402Z,11.10
2018-10-16T03:25:21.415Z,11.37
2018-10-16T03:27:48.656Z,10.73
2018-10-16T03:30:15.963Z,11.47
2018-10-16T03:32:43.216Z,10.63
2018-10-16T03:35:11.439Z,11.60
2018-10-16T03:37:46.756Z,11.13
2018-10-16T03:40:14.541Z,11.37
2018-10-16T03:42:42.589Z,11.40
2018-10-16T03:45:11.529Z,11.57
2018-10-16T03:47:39.608Z,12.10
2018-10-16T03:50:07.465Z,11.00
2018-10-16T03:52:34.811Z,11.20
2018-10-16T03:55:02.040Z,10.53
2018-10-16T03:57:29.553Z,11.60
2018-10-16T03:59:57.049Z,10.97
2018-10-16T04:02:24.354Z,11.77
2018-10-16T04:04:51.803Z,11.17
2018-10-16T04:07:19.067Z,11.57
2018-10-16T04:09:46.360Z,11.67
2018-10-16T04:12:13.624Z,11.60
2018-10-16T04:14:40.898Z,11.57
2018-10-16T04:17:08.228Z,12.90
2018-10-16T04:19:35.623Z,11.67
2018-10-16T04:22:03.056Z,11.20
2018-10-16T04:24:30.446Z,11.40
2018-10-16T04:26:57.766Z,11.63
2018-10-16T04:29:25.118Z,11.90
2018-10-16T04:31:52.550Z,11.17
2018-10-16T04:34:19.914Z,11.30
2018-10-16T04:36:47.200Z,11.10
2018-10-16T04:39:14.744Z,11.60
2018-10-16T04:41:42.485Z,11.50
2018-10-16T04:44:10.442Z,11.97
2018-10-16T04:46:37.738Z,12.53
2018-10-16T04:49:05.336Z,13.77
2018-10-16T04:51:32.629Z,13.67
2018-10-16T04:53:59.978Z,12.73
2018-10-16T04:56:27.274Z,12.37
2018-10-16T04:58:54.660Z,12.70
2018-10-16T05:01:21.989Z,12.67
2018-10-16T05:03:49.232Z,12.90
2018-10-16T05:06:16.625Z,12.47
2018-10-16T05:08:44.129Z,14.07
2018-10-16T05:11:11.420Z,12.60
2018-10-16T05:13:38.772Z,13.60
2018-10-16T05:16:06.046Z,12.80
2018-10-16T05:18:33.419Z,13.03
2018-10-16T05:21:00.881Z,13.90
2018-10-16T05:23:28.889Z,13.00
2018-10-16T05:25:56.283Z,13.20
2018-10-16T05:28:23.560Z,12.40
2018-10-16T05:30:50.831Z,12.20
2018-10-16T05:33:18.120Z,12.43
2018-10-16T05:35:45.565Z,14.03
2018-10-16T05:38:12.854Z,12.30
2018-10-16T05:40:40.098Z,12.00
2018-10-16T05:43:07.694Z,13.30
2018-10-16T05:45:38.257Z,14.07
2018-10-16T05:48:05.536Z,12.30
2018-10-16T05:50:32.790Z,14.70
2018-10-16T05:53:00.106Z,13.27
2018-10-16T05:55:27.379Z,12.80
2018-10-16T05:57:54.864Z,12.97
2018-10-16T06:00:31.258Z,12.70
2018-10-16T06:02:58.513Z,12.97
2018-10-16T06:05:25.838Z,12.63
2018-10-16T06:07:53.045Z,12.10
2018-10-16T06:10:20.405Z,15.77
2018-10-16T06:12:47.668Z,12.60
2018-10-16T06:15:14.962Z,16.47
2018-10-16T06:17:42.231Z,13.87
2018-10-16T06:20:12.114Z,16.67
2018-10-16T06:22:39.755Z,13.30
2018-10-16T06:25:08.668Z,14.50
2018-10-16T06:27:35.921Z,13.50
2018-10-16T06:30:03.575Z,13.27
2018-10-16T06:32:30.870Z,15.00
2018-10-16T06:34:58.380Z,15.07
2018-10-16T06:37:25.754Z,13.30
2018-10-16T06:39:53.065Z,13.37
2018-10-16T06:42:20.403Z,14.10
2018-10-16T06:44:47.743Z,17.87
2018-10-16T06:47:15.104Z,14.17
2018-10-16T06:49:42.495Z,14.77
2018-10-16T06:52:09.874Z,14.87
2018-10-16T06:54:37.187Z,16.03
2018-10-16T06:57:04.969Z,14.50
2018-10-16T06:59:32.894Z,15.27
2018-10-16T07:02:00.194Z,17.77
2018-10-16T07:04:27.458Z,16.37
2018-10-16T07:06:54.831Z,17.17
2018-10-16T07:09:22.042Z,18.93
2018-10-16T07:11:49.460Z,14.97
2018-10-16T07:14:16.780Z,15.67
2018-10-16T07:16:44.628Z,17.40
2018-10-16T07:19:12.912Z,14.40
2018-10-16T07:21:40.870Z,16.83
2018-10-16T07:24:08.640Z,15.73
2018-10-16T07:26:35.909Z,16.07
2018-10-16T07:29:03.349Z,17.50
2018-10-16T07:31:30.629Z,16.33
2018-10-16T07:33:58.233Z,16.47
2018-10-16T07:36:25.473Z,15.63
2018-10-16T07:38:52.862Z,14.20
2018-10-16T07:41:20.393Z,16.80
2018-10-16T07:43:47.795Z,15.90
2018-10-16T07:46:15.057Z,14.67
2018-10-16T07:48:42.425Z,16.50
2018-10-16T07:51:09.611Z,17.97
2018-10-16T07:53:36.884Z,16.20
2018-10-16T07:56:04.461Z,17.67
2018-10-16T07:58:32.305Z,15.50
2018-10-16T08:01:00.402Z,18.23
2018-10-16T08:03:27.775Z,16.47
2018-10-16T08:05:55.043Z,17.23
2018-10-16T08:08:22.299Z,17.33
2018-10-16T08:10:49.627Z,18.67
2018-10-16T08:13:16.881Z,20.90
2018-10-16T08:15:44.135Z,23.63
2018-10-16T08:18:11.555Z,18.77
2018-10-16T08:20:38.835Z,17.77
2018-10-16T08:23:06.145Z,22.77
2018-10-16T08:25:33.387Z,17.40
2018-10-16T08:28:01.372Z,18.63
2018-10-16T08:30:29.413Z,22.37
2018-10-16T08:32:56.881Z,18.53
2018-10-16T08:35:24.299Z,17.30
2018-10-16T08:40:11.428Z,18.00
2018-10-16T08:42:57.562Z,19.10
2018-10-16T08:45:36.460Z,21.30
2018-10-16T08:48:15.240Z,21.77
2018-10-16T08:50:54.234Z,19.57
2018-10-16T08:53:21.550Z,21.47
2018-10-16T08:55:48.913Z,18.77
2018-10-16T08:58:16.314Z,17.40
2018-10-16T09:00:43.734Z,17.80
2018-10-16T09:03:11.070Z,20.00
2018-10-16T09:05:38.352Z,18.47
2018-10-16T09:08:05.688Z,15.90
2018-10-16T09:10:33.058Z,15.93
2018-10-16T09:13:00.319Z,17.53
2018-10-16T09:15:27.636Z,17.10
2018-10-16T09:17:54.984Z,18.57
2018-10-16T09:20:22.419Z,19.10
2018-10-16T09:22:49.652Z,22.83
2018-10-16T09:25:17.132Z,20.10
2018-10-16T09:27:44.519Z,17.60
2018-10-16T09:30:13.011Z,21.33
2018-10-16T09:32:40.630Z,19.57
2018-10-16T09:35:09.655Z,18.83
2018-10-16T09:37:37.539Z,20.13
2018-10-16T09:40:05.979Z,19.90
2018-10-16T09:42:33.465Z,18.63
2018-10-16T09:45:00.801Z,18.30
2018-10-16T09:47:28.205Z,18.83
2018-10-16T09:49:55.618Z,20.30
2018-10-16T09:52:23.063Z,20.67
2018-10-16T09:54:50.423Z,21.07
2018-10-16T09:57:17.742Z,21.27
2018-10-16T09:59:45.038Z,20.90
2018-10-16T10:02:12.963Z,20.13
2018-10-16T10:04:40.317Z,20.33
2018-10-16T10:07:07.620Z,20.00
2018-10-16T10:09:34.934Z,17.80
2018-10-16T10:12:02.437Z,17.73
2018-10-16T10:14:29.798Z,18.13
2018-10-16T10:16:57.110Z,18.23
2018-10-16T10:19:24.422Z,17.17
2018-10-16T10:21:52.002Z,15.80
2018-10-16T10:24:19.287Z,17.13
2018-10-16T10:26:46.576Z,16.07
2018-10-16T10:29:13.959Z,17.07
2018-10-16T10:31:41.196Z,15.47
2018-10-16T10:34:08.514Z,15.63
2018-10-16T10:36:35.792Z,15.60
2018-10-16T10:39:04.568Z,13.87
2018-10-16T10:41:32.560Z,17.37
2018-10-16T10:43:59.820Z,14.63
2018-10-16T10:46:27.787Z,16.50
2018-10-16T10:48:55.241Z,13.73
2018-10-16T10:51:22.944Z,12.93
2018-10-16T10:53:49.976Z,13.30
2018-10-16T10:56:17.288Z,13.30
2018-10-16T10:58:44.546Z,13.20
2018-10-16T11:01:11.840Z,12.27
2018-10-16T11:03:39.353Z,11.90
2018-10-16T11:06:06.571Z,12.13
2018-10-16T11:08:34.631Z,10.70
2018-10-16T11:11:02.583Z,11.43
2018-10-16T11:13:30.525Z,8.97
2018-10-16T11:15:57.899Z,9.90
2018-10-16T11:18:25.154Z,7.97
2018-10-16T11:20:52.484Z,9.07
2018-10-16T11:23:19.731Z,9.70
2018-10-16T11:25:47.085Z,8.20
2018-10-16T11:28:14.388Z,8.50
2018-10-16T11:30:41.799Z,7.37
2018-10-16T11:33:09.302Z,7.80
2018-10-16T11:35:36.546Z,8.23
2018-10-16T11:38:04.159Z,7.50
2018-10-16T11:40:31.424Z,7.72
2018-10-16T11:42:58.901Z,6.95
2018-10-16T11:45:26.259Z,7.08
2018-10-16T11:47:53.540Z,6.95
2018-10-16T11:50:20.866Z,7.42
2018-10-16T11:52:48.202Z,7.17
2018-10-16T11:55:15.498Z,7.17
2018-10-16T11:57:42.758Z,7.40
2018-10-16T12:00:12.856Z,7.08
2018-10-16T12:02:40.953Z,6.05
2018-10-16T12:05:08.199Z,6.65
2018-10-16T12:07:35.504Z,6.50
2018-10-16T12:10:02.884Z,7.25
2018-10-16T12:12:30.214Z,6.62
2018-10-16T12:14:57.492Z,6.08
2018-10-16T12:17:30.498Z,6.40
2018-10-16T12:20:01.640Z,7.10
2018-10-16T12:22:29.084Z,8.70
2018-10-16T12:24:56.493Z,7.42
2018-10-16T12:27:23.761Z,7.22
2018-10-16T12:29:51.059Z,7.20
2018-10-16T12:32:18.409Z,6.28
2018-10-16T12:34:45.634Z,7.17
2018-10-16T12:37:12.921Z,7.03
2018-10-16T12:39:40.319Z,6.80
2018-10-16T12:42:07.773Z,6.87
2018-10-16T12:44:35.051Z,6.20
2018-10-16T12:47:02.360Z,7.22
2018-10-16T12:49:29.941Z,6.12
2018-10-16T12:51:57.312Z,7.33
2018-10-16T12:54:24.703Z,7.22
2018-10-16T12:56:52.796Z,7.17
2018-10-16T12:59:20.142Z,6.92
2018-10-16T13:01:47.552Z,6.25
2018-10-16T13:04:14.806Z,10.63
2018-10-16T13:06:42.508Z,7.42
2018-10-16T13:09:11.257Z,7.47
2018-10-16T13:11:39.576Z,7.70
2018-10-16T13:14:07.187Z,7.00
2018-10-16T13:16:34.581Z,7.53
2018-10-16T13:19:01.835Z,7.53
2018-10-16T13:21:29.897Z,8.83
2018-10-16T13:23:57.260Z,7.28
2018-10-16T13:26:24.613Z,7.47
2018-10-16T13:28:51.980Z,9.45
2018-10-16T13:31:19.295Z,7.53
2018-10-16T13:33:46.724Z,7.30
2018-10-16T13:36:13.978Z,6.75
2018-10-16T13:38:41.382Z,7.50
2018-10-16T13:41:08.765Z,6.53
2018-10-16T13:43:37.042Z,7.42
2018-10-16T13:46:05.035Z,8.23
2018-10-16T13:48:32.980Z,8.38
2018-10-16T13:51:00.391Z,7.40
2018-10-16T13:53:27.714Z,8.38
2018-10-16T13:55:55.122Z,7.70
2018-10-16T13:58:22.422Z,8.50
2018-10-16T14:00:49.852Z,7.90
2018-10-16T14:03:17.333Z,6.55
2018-10-16T14:05:44.716Z,8.38
2018-10-16T14:08:12.080Z,7.28
2018-10-16T14:10:39.363Z,6.90
2018-10-16T14:13:06.691Z,6.72
2018-10-16T14:15:34.609Z,7.28
2018-10-16T14:18:02.555Z,6.90
2018-10-16T14:20:29.881Z,6.90
2018-10-16T14:22:57.263Z,6.50
2018-10-16T14:25:24.655Z,7.10
2018-10-16T14:27:52.055Z,6.30
2018-10-16T14:30:19.396Z,6.90
2018-10-16T14:32:46.679Z,8.17
2018-10-16T14:35:14.459Z,7.87
2018-10-16T14:37:41.758Z,8.50
2018-10-16T14:40:11.601Z,6.80
2018-10-16T14:42:39.278Z,6.37
2018-10-16T14:45:08.091Z,6.63
2018-10-16T14:47:36.047Z,6.97
2018-10-16T14:50:03.940Z,6.80
2018-10-16T14:52:31.186Z,7.60
2018-10-16T14:54:58.434Z,7.50
2018-10-16T14:57:25.882Z,7.50
2018-10-16T14:59:53.344Z,7.57
2018-10-16T15:02:20.667Z,7.03
2018-10-16T15:04:48.017Z,6.60
2018-10-16T15:07:15.362Z,9.73
2018-10-16T15:09:42.692Z,6.97
2018-10-16T15:12:09.981Z,6.10
2018-10-16T15:14:37.328Z,6.33
2018-10-16T15:17:05.769Z,7.27
2018-10-16T15:19:33.180Z,7.03
2018-10-16T15:22:00.532Z,5.53
2018-10-16T15:24:28.540Z,8.83
2018-10-16T15:26:55.868Z,6.60
2018-10-16T15:29:23.196Z,5.77
2018-10-16T15:31:50.678Z,5.93
2018-10-16T15:34:18.120Z,5.60
2018-10-16T15:36:45.393Z,5.80
2018-10-16T15:39:13.177Z,5.70
2018-10-16T15:41:40.425Z,5.73
2018-10-16T15:44:08.568Z,5.63
2018-10-16T15:46:36.424Z,5.60
2018-10-16T15:49:04.042Z,6.23
2018-10-16T15:51:31.459Z,5.60
2018-10-16T15:53:58.779Z,5.73
2018-10-16T15:56:26.084Z,7.70
2018-10-16T15:58:53.475Z,7.93
2018-10-16T16:01:20.747Z,5.80
2018-10-16T16:03:48.055Z,6.97
2018-10-16T16:06:15.331Z,5.33
2018-10-16T16:08:42.648Z,6.03
2018-10-16T16:11:10.064Z,8.57
2018-10-16T16:13:37.472Z,6.83
2018-10-16T16:16:04.792Z,6.73
2018-10-16T16:18:32.119Z,7.30
2018-10-16T16:20:59.973Z,7.77
2018-10-16T16:23:27.307Z,7.20
2018-10-16T16:25:54.617Z,7.00
2018-10-16T16:28:22.458Z,7.93
2018-10-16T16:30:49.757Z,10.33
2018-10-16T16:33:17.019Z,10.07
2018-10-16T16:35:44.343Z,10.73
2018-10-16T16:38:12.153Z,8.80
2018-10-16T16:40:39.447Z,7.80
2018-10-16T16:43:06.823Z,9.77
2018-10-16T16:45:34.147Z,8.43
2018-10-16T16:48:01.509Z,8.77
2018-10-16T16:50:28.903Z,9.73
2018-10-16T16:52:56.822Z,10.57
2018-10-16T16:55:24.351Z,9.23
2018-10-16T16:57:51.786Z,9.17
2018-10-16T17:00:19.161Z,9.37
2018-10-16T17:02:47.071Z,13.70
2018-10-16T17:05:14.887Z,9.40
2018-10-16T17:07:42.836Z,10.37
2018-10-16T17:10:10.215Z,9.33
2018-10-16T17:12:38.379Z,8.87
2018-10-16T17:15:07.875Z,8.57
2018-10-16T17:17:35.220Z,9.70
2018-10-16T17:20:03.097Z,11.10
2018-10-16T17:22:30.379Z,9.33
2018-10-16T17:24:57.789Z,8.43
2018-10-16T17:27:25.091Z,8.73
2018-10-16T17:29:52.495Z,9.27
2018-10-16T17:32:19.748Z,8.10
2018-10-16T17:34:47.076Z,7.90
2018-10-16T17:37:14.469Z,8.63
2018-10-16T17:39:41.838Z,10.07
2018-10-16T17:42:09.258Z,10.00
2018-10-16T17:44:36.768Z,8.23
2018-10-16T17:47:04.382Z,9.93
2018-10-16T17:49:31.640Z,9.87
2018-10-16T17:51:58.980Z,9.50
2018-10-16T17:54:26.358Z,10.10
2018-10-16T17:56:53.814Z,9.20
2018-10-16T17:59:21.064Z,9.50
2018-10-16T18:01:48.500Z,9.97
2018-10-16T18:04:16.756Z,9.10
2018-10-16T18:06:44.072Z,10.33
2018-10-16T18:09:12.215Z,10.63
2018-10-16T18:11:39.509Z,10.23
2018-10-16T18:14:07.616Z,10.90
2018-10-16T18:16:34.962Z,11.50
2018-10-16T18:19:02.395Z,11.27
2018-10-16T18:21:30.424Z,10.67
2018-10-16T18:23:57.889Z,10.97
2018-10-16T18:26:25.395Z,11.00
2018-10-16T18:28:52.812Z,10.87
2018-10-16T18:31:20.252Z,12.07
2018-10-16T18:33:47.517Z,14.67
2018-10-16T18:36:14.845Z,11.37
2018-10-16T18:38:42.095Z,11.70
2018-10-16T18:41:15.635Z,11.63
2018-10-16T18:43:43.048Z,11.07
2018-10-16T18:46:10.385Z,11.37
2018-10-16T18:48:37.742Z,10.20
2018-10-16T18:51:05.220Z,11.07
2018-10-16T18:53:32.735Z,10.90
2018-10-16T18:56:00.023Z,11.20
2018-10-16T18:58:27.509Z,11.80
2018-10-16T19:00:54.906Z,12.57
2018-10-16T19:03:22.279Z,12.30
2018-10-16T19:05:49.780Z,12.33
2018-10-16T19:08:17.037Z,12.30
2018-10-16T19:10:44.404Z,11.73
2018-10-16T19:13:11.741Z,12.33
2018-10-16T19:15:39.037Z,12.67
2018-10-16T19:18:06.380Z,12.10
2018-10-16T19:20:34.859Z,12.83
2018-10-16T19:23:02.765Z,12.20
2018-10-16T19:25:30.123Z,12.10
2018-10-16T19:27:57.438Z,11.77
2018-10-16T19:30:24.723Z,12.63
2018-10-16T19:32:51.978Z,12.03
2018-10-16T19:35:19.303Z,12.07
2018-10-16T19:37:46.649Z,12.30
2018-10-16T19:40:14.077Z,11.47
2018-10-16T19:42:41.466Z,11.53
2018-10-16T19:45:09.696Z,11.73
2018-10-16T19:47:37.914Z,11.77
2018-10-16T19:50:06.078Z,11.40
2018-10-16T19:52:33.476Z,12.00
2018-10-16T19:55:00.888Z,13.57
2018-10-16T19:57:28.196Z,12.07
2018-10-16T19:59:55.723Z,12.50
2018-10-16T20:02:22.973Z,11.00
2018-10-16T20:04:50.389Z,11.40
2018-10-16T20:07:17.945Z,10.53
2018-10-16T20:09:45.189Z,11.97
2018-10-16T20:12:12.674Z,11.67
2018-10-16T20:14:40.746Z,11.23
2018-10-16T20:17:08.747Z,11.70
2018-10-16T20:19:36.179Z,10.40
2018-10-16T20:22:03.565Z,11.00
2018-10-16T20:24:30.895Z,10.50
2018-10-16T20:26:58.349Z,10.73
2018-10-16T20:29:25.749Z,10.57
2018-10-16T20:31:53.123Z,10.97
2018-10-16T20:34:20.431Z,11.17
2018-10-16T20:36:47.781Z,10.13
2018-10-16T20:39:15.052Z,11.20
2018-10-16T20:41:42.429Z,10.63
2018-10-16T20:44:10.436Z,11.73
2018-10-16T20:46:37.773Z,11.47
2018-10-16T20:49:05.927Z,10.87
2018-10-16T20:51:33.544Z,11.67
2018-10-16T20:54:01.417Z,11.93
2018-10-16T20:56:28.786Z,11.03
2018-10-16T20:58:56.752Z,10.67
2018-10-16T21:01:24.171Z,10.13
2018-10-16T21:03:51.658Z,10.93
2018-10-16T21:06:19.289Z,10.37
2018-10-16T21:08:46.464Z,10.20
2018-10-16T21:11:14.162Z,10.77
2018-10-16T21:13:42.210Z,11.20
2018-10-16T21:16:09.552Z,10.23
2018-10-16T21:18:37.011Z,11.27
2018-10-16T21:21:05.064Z,10.40
2018-10-16T21:23:32.414Z,11.20
2018-10-16T21:25:59.830Z,12.20
2018-10-16T21:28:27.290Z,11.53
2018-10-16T21:30:54.716Z,12.30
2018-10-16T21:33:22.138Z,11.73
2018-10-16T21:35:49.410Z,10.87
2018-10-16T21:38:16.802Z,11.77
2018-10-16T21:40:44.047Z,10.67
2018-10-16T21:43:11.495Z,10.43
2018-10-16T21:45:38.818Z,10.40
2018-10-16T21:48:06.084Z,10.67
2018-10-16T21:50:33.417Z,10.10
2018-10-16T21:53:00.737Z,10.23
2018-10-16T21:55:28.037Z,10.07
2018-10-16T21:57:55.502Z,10.53
2018-10-16T22:00:28.468Z,10.13
2018-10-16T22:02:57.110Z,10.17
2018-10-16T22:05:25.097Z,10.20
2018-10-16T22:07:53.965Z,11.00
2018-10-16T22:10:21.775Z,9.93
2018-10-16T22:12:49.272Z,9.77
2018-10-16T22:15:18.231Z,9.50
2018-10-16T22:17:45.575Z,9.57
2018-10-16T22:20:13.409Z,9.13
2018-10-16T22:22:41.009Z,8.97
2018-10-16T22:25:08.488Z,9.23
2018-10-16T22:27:35.737Z,8.20
2018-10-16T22:30:03.099Z,7.90
2018-10-16T22:32:30.986Z,8.13
2018-10-16T22:34:58.364Z,7.50
2018-10-16T22:37:25.645Z,7.40
2018-10-16T22:39:53.609Z,7.87
2018-10-16T22:42:20.855Z,7.17
2018-10-16T22:44:48.713Z,7.67
2018-10-16T22:47:16.062Z,7.27
2018-10-16T22:49:43.442Z,7.37
2018-10-16T22:52:10.740Z,6.97
2018-10-16T22:54:38.171Z,6.97
2018-10-16T22:57:06.090Z,6.63
2018-10-16T22:59:33.329Z,6.30
2018-10-16T23:02:00.637Z,6.77
2018-10-16T23:04:28.020Z,7.43
2018-10-16T23:06:55.461Z,7.53
2018-10-16T23:09:22.704Z,8.00
2018-10-16T23:11:50.667Z,8.13
2018-10-16T23:14:17.980Z,8.33
2018-10-16T23:16:45.268Z,8.40
2018-10-16T23:19:12.571Z,8.30
2018-10-16T23:21:39.776Z,7.63
2018-10-16T23:24:07.108Z,8.23
2018-10-16T23:26:35.391Z,7.77
2018-10-16T23:29:02.791Z,6.67
2018-10-16T23:31:30.138Z,7.60
2018-10-16T23:33:57.455Z,7.07
2018-10-16T23:36:25.379Z,7.17
2018-10-16T23:38:52.636Z,7.70
2018-10-16T23:41:19.899Z,7.40
2018-10-16T23:43:47.198Z,8.10
2018-10-16T23:46:14.477Z,7.50
2018-10-16T23:48:41.819Z,7.80
2018-10-16T23:51:09.153Z,8.23
2018-10-16T23:53:36.584Z,8.10
2018-10-16T23:56:03.918Z,7.97
2018-10-16T23:58:31.713Z,8.07
